Time;durP1;ratioP1;P1;durP2;ratioP2;P2;SDS_P1;SDS_P2;PMS_P1;PMS_P2;Temp;Humidity;BMP_temperature;BMP_pressure;BME280_temperature;BME280_humidity;BME280_pressure;Samples;Min_cycle;Max_cycle;Signal;HPM_P1;HPM_P2
2023/04/03 00:00:49;;;;;;;19.90;8.68;;;;;;;0.77;100.00;102793.50;5075007;28;20044;-72
2023/04/03 00:03:15;;;;;;;20.20;8.90;;;;;;;0.83;100.00;102806.03;5074958;28;20029;-68
2023/04/03 00:05:41;;;;;;;19.80;8.68;;;;;;;0.76;100.00;102799.50;5074562;28;20029;-69
2023/04/03 00:08:09;;;;;;;19.33;8.55;;;;;;;0.82;100.00;102802.53;5074832;28;20484;-69
2023/04/03 00:10:38;;;;;;;20.02;8.65;;;;;;;0.85;100.00;102807.09;5073482;28;20432;-69
2023/04/03 00:13:06;;;;;;;19.63;9.38;;;;;;;0.73;100.00;102808.75;5074511;28;20550;-69
2023/04/03 00:15:31;;;;;;;20.60;9.50;;;;;;;0.79;100.00;102806.63;5074492;28;20028;-69
2023/04/03 00:17:57;;;;;;;19.00;8.93;;;;;;;0.60;100.00;102809.53;5074637;28;20494;-69
2023/04/03 00:20:22;;;;;;;19.85;8.43;;;;;;;0.59;100.00;102819.03;5074322;28;20103;-68
2023/04/03 00:22:48;;;;;;;19.50;8.45;;;;;;;0.50;100.00;102811.41;5074326;28;20082;-70
2023/04/03 00:25:14;;;;;;;19.33;8.27;;;;;;;0.52;100.00;102816.75;5074514;28;20482;-69
2023/04/03 00:27:40;;;;;;;19.30;8.75;;;;;;;0.44;100.00;102823.06;5074173;28;20083;-69
2023/04/03 00:30:08;;;;;;;20.15;9.10;;;;;;;0.43;100.00;102818.66;5073975;28;20024;-71
2023/04/03 00:32:33;;;;;;;20.27;9.30;;;;;;;0.37;100.00;102816.47;5074434;28;20020;-69
2023/04/03 00:34:59;;;;;;;20.27;9.02;;;;;;;0.24;100.00;102814.63;5074063;28;20225;-69
2023/04/03 00:37:24;;;;;;;20.50;9.70;;;;;;;0.30;100.00;102822.00;5073857;28;20047;-69
2023/04/03 00:39:50;;;;;;;21.20;10.32;;;;;;;0.26;100.00;102826.06;5074136;28;20490;-69
2023/04/03 00:42:16;;;;;;;20.58;10.70;;;;;;;0.26;100.00;102823.47;5072849;28;20077;-72
2023/04/03 00:44:41;;;;;;;20.80;10.65;;;;;;;0.19;100.00;102825.44;5073880;28;20028;-74
2023/04/03 00:47:10;;;;;;;22.05;11.15;;;;;;;0.26;100.00;102828.66;5073952;28;20028;-72
2023/04/03 00:49:37;;;;;;;22.08;11.20;;;;;;;0.24;100.00;102827.63;5073771;28;20024;-75
2023/04/03 00:52:03;;;;;;;21.35;11.07;;;;;;;0.26;100.00;102828.66;5073640;28;20033;-75
2023/04/03 00:54:29;;;;;;;20.73;10.10;;;;;;;0.13;100.00;102826.78;5073855;28;20032;-75
2023/04/03 00:56:57;;;;;;;21.20;9.48;;;;;;;0.17;100.00;102835.72;5073866;28;20415;-73
2023/04/03 00:59:31;;;;;;;20.67;9.80;;;;;;;0.16;100.00;102829.63;5073570;28;20035;-75
2023/04/03 01:01:58;;;;;;;20.60;9.95;;;;;;;0.21;100.00;102829.97;5073799;28;20078;-74
2023/04/03 01:04:37;;;;;;;19.52;9.07;;;;;;;0.19;100.00;102831.56;5073473;28;20027;-74
2023/04/03 01:07:10;;;;;;;19.48;8.77;;;;;;;0.09;100.00;102829.03;5073410;28;20036;-75
2023/04/03 01:09:37;;;;;;;19.95;9.25;;;;;;;0.01;100.00;102833.63;5073324;28;20104;-74
2023/04/03 01:12:20;;;;;;;20.63;9.25;;;;;;;0.02;100.00;102829.34;5073534;28;20415;-75
2023/04/03 01:14:48;;;;;;;20.48;9.38;;;;;;;0.01;100.00;102831.00;5065940;28;20386;-75
2023/04/03 01:17:33;;;;;;;19.90;9.60;;;;;;;0.01;100.00;102836.22;5069333;28;20052;-75
2023/04/03 01:20:07;;;;;;;20.30;9.45;;;;;;;-0.12;100.00;102834.34;5071840;28;20024;-76
2023/04/03 01:22:53;;;;;;;20.83;9.55;;;;;;;-0.19;100.00;102834.63;5073147;28;20465;-75
2023/04/03 01:25:18;;;;;;;20.02;9.25;;;;;;;-0.24;100.00;102839.47;5065740;28;20115;-69
2023/04/03 01:27:44;;;;;;;20.35;10.23;;;;;;;-0.21;100.00;102844.00;5072985;28;20054;-70
2023/04/03 01:30:10;;;;;;;20.40;9.98;;;;;;;-0.35;100.00;102835.09;5072856;28;20043;-68
2023/04/03 01:32:35;;;;;;;21.17;10.20;;;;;;;-0.39;100.00;102838.25;5072742;28;20190;-68
2023/04/03 01:35:01;;;;;;;20.23;9.93;;;;;;;-0.36;100.00;102843.69;5073153;28;20068;-68
2023/04/03 01:37:26;;;;;;;21.48;10.13;;;;;;;-0.42;100.00;102831.09;5072811;28;20032;-68
2023/04/03 01:39:51;;;;;;;21.38;9.70;;;;;;;-0.36;100.00;102834.19;5071608;28;20103;-68
2023/04/03 01:42:17;;;;;;;21.67;10.68;;;;;;;-0.34;100.00;102836.00;5073067;28;20056;-68
2023/04/03 01:44:42;;;;;;;20.85;9.98;;;;;;;-0.40;100.00;102842.53;5073172;28;20037;-68
2023/04/03 01:47:07;;;;;;;21.75;10.40;;;;;;;-0.38;100.00;102834.84;5072644;28;20066;-68
2023/04/03 01:49:33;;;;;;;20.80;10.07;;;;;;;-0.37;100.00;102844.47;5072963;28;20369;-68
2023/04/03 01:51:58;;;;;;;21.20;10.70;;;;;;;-0.38;100.00;102843.56;5072950;28;20025;-68
2023/04/03 01:54:24;;;;;;;22.00;11.43;;;;;;;-0.45;100.00;102841.25;5072348;28;20040;-69
2023/04/03 01:56:51;;;;;;;22.67;12.25;;;;;;;-0.48;100.00;102833.22;5072884;28;20036;-69
2023/04/03 01:59:17;;;;;;;22.45;11.80;;;;;;;-0.49;100.00;102834.00;5072642;28;20074;-68
2023/04/03 02:01:44;;;;;;;21.33;10.85;;;;;;;-0.55;100.00;102839.59;5072624;28;20047;-68
2023/04/03 02:04:10;;;;;;;22.17;11.20;;;;;;;-0.53;100.00;102844.91;5072936;28;20032;-69
2023/04/03 02:06:36;;;;;;;21.73;11.27;;;;;;;-0.55;100.00;102833.50;5072499;28;20032;-69
2023/04/03 02:09:01;;;;;;;21.40;11.15;;;;;;;-0.57;100.00;102846.38;5072820;28;20025;-70
2023/04/03 02:11:26;;;;;;;21.77;11.52;;;;;;;-0.60;100.00;102842.59;5072754;28;20051;-68
2023/04/03 02:13:52;;;;;;;21.98;11.80;;;;;;;-0.58;100.00;102844.53;5072537;28;20382;-75
2023/04/03 02:16:17;;;;;;;21.80;11.75;;;;;;;-0.59;100.00;102839.22;5072803;28;20025;-76
2023/04/03 02:18:42;;;;;;;21.92;11.55;;;;;;;-0.65;100.00;102839.63;5072388;28;20029;-73
2023/04/03 02:21:08;;;;;;;21.58;11.38;;;;;;;-0.65;100.00;102843.94;5072342;28;20056;-74
2023/04/03 02:23:35;;;;;;;21.70;11.52;;;;;;;-0.65;100.00;102846.53;5072655;28;20115;-75
2023/04/03 02:26:12;;;;;;;22.38;11.50;;;;;;;-0.65;100.00;102843.94;5072489;28;20032;-76
2023/04/03 02:28:38;;;;;;;21.80;11.18;;;;;;;-0.68;100.00;102841.97;5072433;28;20415;-76
2023/04/03 02:31:06;;;;;;;21.35;11.27;;;;;;;-0.74;100.00;102850.19;5070881;28;20028;-75
2023/04/03 02:33:31;;;;;;;22.10;10.70;;;;;;;-0.76;100.00;102848.22;5072579;28;20028;-75
2023/04/03 02:35:57;;;;;;;21.55;11.70;;;;;;;-0.77;100.00;102855.13;5072271;28;20028;-73
2023/04/03 02:38:23;;;;;;;22.50;11.80;;;;;;;-0.82;100.00;102851.22;5072197;28;20032;-72
2023/04/03 02:40:49;;;;;;;22.83;11.82;;;;;;;-0.87;100.00;102849.94;5072536;28;20029;-75
2023/04/03 02:43:14;;;;;;;22.33;12.57;;;;;;;-0.86;100.00;102862.13;5072305;28;20047;-75
2023/04/03 02:45:40;;;;;;;21.67;11.70;;;;;;;-0.89;100.00;102864.47;5072161;28;20087;-75
2023/04/03 02:48:05;;;;;;;22.60;12.40;;;;;;;-0.87;100.00;102865.53;5072615;28;20154;-76
2023/04/03 02:50:31;;;;;;;22.60;12.27;;;;;;;-0.88;100.00;102867.19;5072207;28;20035;-68
2023/04/03 02:52:56;;;;;;;23.27;12.65;;;;;;;-0.90;100.00;102867.88;5072657;28;20030;-68
2023/04/03 02:55:21;;;;;;;22.30;12.40;;;;;;;-0.90;100.00;102863.59;5072049;28;20050;-69
2023/04/03 02:57:47;;;;;;;22.20;12.60;;;;;;;-0.95;100.00;102864.88;5072193;28;20109;-68
2023/04/03 03:00:13;;;;;;;23.63;12.60;;;;;;;-0.89;100.00;102867.06;5070940;28;20039;-68
2023/04/03 03:02:38;;;;;;;22.80;12.30;;;;;;;-0.87;100.00;102868.13;5071924;28;20107;-68
2023/04/03 03:05:04;;;;;;;22.48;12.15;;;;;;;-0.89;100.00;102865.41;5072814;28;20059;-68
2023/04/03 03:07:29;;;;;;;22.55;11.73;;;;;;;-0.82;100.00;102872.00;5075859;28;20037;-68
2023/04/03 03:09:55;;;;;;;22.63;11.90;;;;;;;-0.78;100.00;102868.88;5075752;28;20578;-70
2023/04/03 03:12:21;;;;;;;22.13;11.65;;;;;;;-0.77;100.00;102870.72;5075649;28;20485;-70
2023/04/03 03:14:47;;;;;;;22.73;11.38;;;;;;;-0.74;100.00;102862.28;5074685;28;20020;-68
2023/04/03 03:17:13;;;;;;;21.88;10.98;;;;;;;-0.74;100.00;102859.66;5075887;28;20047;-68
2023/04/03 03:19:38;;;;;;;21.73;11.30;;;;;;;-0.74;100.00;102860.56;5075471;28;20021;-68
2023/04/03 03:22:03;;;;;;;21.40;10.57;;;;;;;-0.74;100.00;102863.16;5075686;28;20077;-69
2023/04/03 03:24:29;;;;;;;20.75;10.23;;;;;;;-0.78;100.00;102863.69;5075528;28;20162;-68
2023/04/03 03:26:55;;;;;;;21.88;10.68;;;;;;;-0.80;100.00;102865.25;5075294;28;20502;-68
2023/04/03 03:29:20;;;;;;;21.58;9.70;;;;;;;-0.76;100.00;102863.81;5075570;28;20095;-70
2023/04/03 03:31:46;;;;;;;21.58;9.88;;;;;;;-0.86;100.00;102858.63;5075151;28;20044;-69
2023/04/03 03:34:11;;;;;;;22.42;10.38;;;;;;;-0.86;100.00;102869.03;5075384;28;20028;-69
2023/04/03 03:36:37;;;;;;;20.38;9.40;;;;;;;-0.86;100.00;102869.91;5075104;28;20036;-69
2023/04/03 03:39:02;;;;;;;20.98;9.75;;;;;;;-0.85;100.00;102873.44;5075410;28;20056;-68
2023/04/03 03:41:28;;;;;;;20.85;9.70;;;;;;;-0.89;100.00;102875.78;5075307;28;20036;-69
2023/04/03 03:43:53;;;;;;;21.55;9.55;;;;;;;-0.82;100.00;102877.19;5075010;28;20110;-69
2023/04/03 03:46:19;;;;;;;20.33;9.23;;;;;;;-0.92;100.00;102879.81;5075041;28;20475;-69
2023/04/03 03:48:44;;;;;;;20.20;9.23;;;;;;;-0.89;100.00;102887.84;5075211;28;20182;-74
2023/04/03 03:51:10;;;;;;;21.33;9.32;;;;;;;-0.88;100.00;102884.47;5074916;28;20037;-69
2023/04/03 03:53:35;;;;;;;20.73;9.20;;;;;;;-0.86;100.00;102890.69;5074924;28;20029;-72
2023/04/03 03:56:01;;;;;;;21.77;9.27;;;;;;;-0.92;100.00;102892.78;5075040;28;20391;-75
2023/04/03 03:58:26;;;;;;;20.05;8.80;;;;;;;-0.96;100.00;102898.50;5074866;28;20417;-69
2023/04/03 04:00:52;;;;;;;21.33;8.85;;;;;;;-0.96;100.00;102894.25;5073603;28;20391;-69
2023/04/03 04:03:17;;;;;;;19.60;8.30;;;;;;;-1.04;100.00;102889.19;5075016;28;20111;-71
2023/04/03 04:05:43;;;;;;;21.20;8.13;;;;;;;-1.03;100.00;102891.91;5074638;28;20043;-69
2023/04/03 04:08:09;;;;;;;18.92;7.90;;;;;;;-1.08;100.00;102888.94;5074652;28;20032;-69
2023/04/03 04:10:35;;;;;;;22.30;8.52;;;;;;;-1.07;100.00;102895.91;5074842;28;20025;-69
2023/04/03 04:13:00;;;;;;;19.73;8.27;;;;;;;-1.05;100.00;102896.03;5074616;28;20166;-71
2023/04/03 04:15:26;;;;;;;20.65;8.45;;;;;;;-1.10;100.00;102892.16;5074710;28;20054;-72
2023/04/03 04:17:53;;;;;;;20.10;8.25;;;;;;;-1.07;100.00;102892.41;5073050;28;20036;-73
2023/04/03 04:20:18;;;;;;;20.02;8.68;;;;;;;-1.08;100.00;102899.31;5074478;28;20029;-70
2023/04/03 04:22:43;;;;;;;20.98;8.50;;;;;;;-1.16;100.00;102899.44;5074497;28;20495;-75
2023/04/03 04:25:09;;;;;;;20.83;8.50;;;;;;;-1.12;100.00;102894.63;5074283;28;20029;-71
2023/04/03 04:27:35;;;;;;;19.98;8.07;;;;;;;-1.17;100.00;102901.09;5074195;28;20025;-71
2023/04/03 04:30:00;;;;;;;20.08;8.20;;;;;;;-1.19;100.00;102896.56;5074399;28;20029;-71
2023/04/03 04:32:26;;;;;;;20.08;8.10;;;;;;;-1.20;100.00;102887.88;5074071;28;20045;-74
2023/04/03 04:34:51;;;;;;;20.33;8.35;;;;;;;-1.18;100.00;102890.59;5074133;28;20032;-74
2023/04/03 04:37:16;;;;;;;20.45;7.82;;;;;;;-1.19;100.00;102889.69;5074500;28;20029;-71
2023/04/03 04:39:42;;;;;;;21.23;8.05;;;;;;;-1.25;100.00;102895.28;5074204;28;20020;-72
2023/04/03 04:42:12;;;;;;;20.52;8.27;;;;;;;-1.21;100.00;102896.44;5074203;28;20103;-70
2023/04/03 04:44:38;;;;;;;20.40;8.48;;;;;;;-1.25;100.00;102896.97;5074130;28;20387;-71
2023/04/03 04:47:03;;;;;;;21.70;7.85;;;;;;;-1.25;100.00;102902.16;5073786;28;20024;-71
2023/04/03 04:49:29;;;;;;;20.52;7.50;;;;;;;-1.27;100.00;102906.31;5073887;28;20086;-70
2023/04/03 04:51:54;;;;;;;21.00;8.20;;;;;;;-1.27;100.00;102912.41;5074011;28;20391;-71
2023/04/03 04:54:20;;;;;;;20.15;7.55;;;;;;;-1.27;100.00;102912.41;5073731;28;20032;-69
2023/04/03 04:56:45;;;;;;;19.88;7.20;;;;;;;-1.30;100.00;102912.13;5069654;28;20021;-69
2023/04/03 04:59:10;;;;;;;20.45;7.07;;;;;;;-1.30;100.00;102921.63;5073771;28;20531;-68
2023/04/03 05:01:36;;;;;;;19.48;7.20;;;;;;;-1.32;100.00;102918.88;5073492;28;20032;-69
2023/04/03 05:04:01;;;;;;;20.00;7.25;;;;;;;-1.29;100.00;102913.06;5073658;28;20020;-71
2023/04/03 05:06:26;;;;;;;19.30;7.20;;;;;;;-1.29;100.00;102919.16;5073440;28;20080;-69
2023/04/03 05:08:52;;;;;;;19.25;6.82;;;;;;;-1.31;100.00;102924.97;5073367;28;20046;-68
2023/04/03 05:11:17;;;;;;;18.95;6.72;;;;;;;-1.29;100.00;102923.44;5073670;28;20032;-68
2023/04/03 05:13:43;;;;;;;19.08;6.68;;;;;;;-1.26;100.00;102918.50;5073229;28;20563;-69
2023/04/03 05:16:08;;;;;;;19.10;7.00;;;;;;;-1.27;100.00;102925.41;5073353;28;20036;-69
2023/04/03 05:18:33;;;;;;;19.90;6.78;;;;;;;-1.30;100.00;102932.00;5073456;28;20035;-70
2023/04/03 05:20:59;;;;;;;19.42;7.00;;;;;;;-1.25;100.00;102925.53;5073421;28;20040;-68
2023/04/03 05:23:24;;;;;;;20.33;6.90;;;;;;;-1.27;100.00;102927.06;5073175;28;20021;-68
2023/04/03 05:25:50;;;;;;;19.17;6.70;;;;;;;-1.26;100.00;102929.78;5073315;28;20079;-68
2023/04/03 05:28:15;;;;;;;19.02;6.80;;;;;;;-1.26;100.00;102928.91;5072797;28;20131;-69
2023/04/03 05:30:41;;;;;;;20.67;6.75;;;;;;;-1.27;100.00;102928.00;5072995;28;20040;-68
2023/04/03 05:33:06;;;;;;;21.33;7.00;;;;;;;-1.23;100.00;102929.16;5073063;28;20048;-68
2023/04/03 05:35:32;;;;;;;20.08;6.97;;;;;;;-1.24;100.00;102930.84;5072939;28;20028;-68
2023/04/03 05:37:57;;;;;;;19.35;6.50;;;;;;;-1.23;100.00;102935.25;5073338;28;20119;-68
2023/04/03 05:40:23;;;;;;;19.45;6.35;;;;;;;-1.20;100.00;102936.28;5072666;28;20368;-68
2023/04/03 05:42:48;;;;;;;17.83;6.68;;;;;;;-1.15;100.00;102942.78;5067748;28;20119;-67
2023/04/03 05:45:14;;;;;;;19.30;6.38;;;;;;;-1.13;100.00;102944.72;5073101;28;20054;-68
2023/04/03 05:47:39;;;;;;;19.17;6.35;;;;;;;-1.09;100.00;102951.09;5068658;28;20032;-67
2023/04/03 05:50:05;;;;;;;20.00;6.60;;;;;;;-1.04;100.00;102951.50;5070258;28;20035;-69
2023/04/03 05:52:35;;;;;;;18.75;6.80;;;;;;;-0.96;100.00;102945.25;5067719;28;20125;-68
2023/04/03 05:55:00;;;;;;;19.15;6.30;;;;;;;-0.90;100.00;102945.78;5067713;28;20029;-68
2023/04/03 05:57:26;;;;;;;18.35;6.20;;;;;;;-0.84;100.00;102951.50;5067874;28;20487;-68
2023/04/03 05:59:51;;;;;;;18.48;5.93;;;;;;;-0.74;100.00;102953.19;5070024;28;20028;-68
2023/04/03 06:02:19;;;;;;;20.23;6.93;;;;;;;-0.72;100.00;102949.91;5069394;28;20120;-72
2023/04/03 06:04:45;;;;;;;19.63;6.15;;;;;;;-0.67;100.00;102949.38;5065583;28;20032;-67
2023/04/03 06:07:13;;;;;;;19.35;6.30;;;;;;;-0.58;100.00;102952.78;5066763;28;20119;-68
2023/04/03 06:09:38;;;;;;;18.02;6.18;;;;;;;-0.49;100.00;102950.94;5069581;28;20391;-68
2023/04/03 06:12:04;;;;;;;19.23;6.20;;;;;;;-0.48;100.00;102952.75;5071817;28;20036;-68
2023/04/03 06:14:29;;;;;;;20.27;6.40;;;;;;;-0.41;100.00;102954.16;5069394;28;20036;-68
2023/04/03 06:16:54;;;;;;;18.80;6.05;;;;;;;-0.36;100.00;102958.97;5066618;28;20036;-71
2023/04/03 06:19:20;;;;;;;20.23;6.13;;;;;;;-0.29;100.00;102959.44;5068426;28;20068;-68
2023/04/03 06:21:46;;;;;;;20.05;6.45;;;;;;;-0.19;100.00;102967.22;5070305;28;20505;-68
2023/04/03 06:24:14;;;;;;;19.52;6.10;;;;;;;-0.11;100.00;102965.28;5066813;28;20104;-69
2023/04/03 06:26:40;;;;;;;18.45;5.93;;;;;;;-0.01;100.00;102967.84;5064232;28;20086;-68
2023/04/03 06:29:05;;;;;;;19.75;6.50;;;;;;;0.05;100.00;102972.63;5069276;28;20028;-70
2023/04/03 06:31:31;;;;;;;18.58;5.80;;;;;;;0.05;100.00;102962.22;5078905;28;20044;-72
2023/04/03 06:33:56;;;;;;;18.88;5.78;;;;;;;0.13;100.00;102972.47;5070502;28;20033;-69
2023/04/03 06:36:22;;;;;;;18.15;5.60;;;;;;;0.23;100.00;102978.41;5073917;28;20025;-69
2023/04/03 06:38:48;;;;;;;18.85;5.70;;;;;;;0.29;100.00;102976.28;5068538;28;20395;-67
2023/04/03 06:41:14;;;;;;;17.88;5.30;;;;;;;0.37;100.00;102977.81;5069719;28;20052;-69
2023/04/03 06:43:39;;;;;;;16.38;5.40;;;;;;;0.48;100.00;102978.66;5075216;28;20111;-68
2023/04/03 06:46:05;;;;;;;16.05;5.00;;;;;;;0.54;100.00;102967.81;5073553;28;20091;-70
2023/04/03 06:48:30;;;;;;;17.92;5.75;;;;;;;0.63;100.00;102974.69;5077886;28;20454;-71
2023/04/03 06:50:56;;;;;;;16.95;5.30;;;;;;;0.72;100.00;102984.00;5069923;28;20040;-69
2023/04/03 06:53:21;;;;;;;18.13;5.38;;;;;;;0.81;100.00;102982.13;5080133;28;20039;-69
2023/04/03 06:55:47;;;;;;;18.33;5.57;;;;;;;0.85;100.00;102982.47;5071584;28;20035;-70
2023/04/03 06:58:13;;;;;;;17.00;5.00;;;;;;;0.86;100.00;102988.59;5073197;28;20069;-68
2023/04/03 07:00:39;;;;;;;18.48;5.40;;;;;;;0.95;100.00;102986.69;5071391;28;20028;-75
2023/04/03 07:03:04;;;;;;;17.73;5.10;;;;;;;1.01;100.00;102981.06;5068553;28;20110;-69
2023/04/03 07:05:30;;;;;;;18.88;5.30;;;;;;;1.10;100.00;102988.69;5069220;28;20044;-69
2023/04/03 07:07:55;;;;;;;17.98;5.20;;;;;;;1.18;100.00;102996.31;5076167;28;20036;-70
2023/04/03 07:10:21;;;;;;;15.73;4.93;;;;;;;1.27;100.00;102979.53;5076927;28;20100;-70
2023/04/03 07:12:46;;;;;;;17.45;5.30;;;;;;;1.35;100.00;102987.16;5071080;28;20070;-69
2023/04/03 07:15:12;;;;;;;17.42;4.80;;;;;;;1.44;100.00;102986.03;5071415;28;20492;-69
2023/04/03 07:17:38;;;;;;;18.50;4.90;;;;;;;1.58;100.00;102990.59;5070696;28;20387;-67
2023/04/03 07:20:04;;;;;;;16.85;4.65;;;;;;;1.62;100.00;102994.38;5074099;28;20036;-68
2023/04/03 07:22:30;;;;;;;17.23;4.90;;;;;;;1.65;100.00;102997.19;5073075;28;20123;-69
2023/04/03 07:24:56;;;;;;;16.10;4.38;;;;;;;1.68;100.00;102990.50;5065082;28;20021;-68
2023/04/03 07:27:21;;;;;;;16.15;4.88;;;;;;;1.81;100.00;103005.38;5077628;28;20479;-71
2023/04/03 07:29:48;;;;;;;17.23;4.88;;;;;;;1.84;100.00;103000.38;5071966;28;20104;-69
2023/04/03 07:32:14;;;;;;;18.38;4.88;;;;;;;1.90;100.00;103005.13;5074675;28;20488;-67
2023/04/03 07:34:40;;;;;;;18.65;5.00;;;;;;;1.97;100.00;103010.03;5071181;28;20163;-70
2023/04/03 07:37:06;;;;;;;17.63;4.70;;;;;;;2.07;100.00;103009.91;5078740;28;20051;-67
2023/04/03 07:39:32;;;;;;;16.58;4.45;;;;;;;2.11;100.00;103003.19;5070228;28;20058;-69
2023/04/03 07:41:57;;;;;;;16.50;4.88;;;;;;;2.16;100.00;103012.28;5065558;28;20473;-67
2023/04/03 07:44:23;;;;;;;19.55;4.70;;;;;;;2.24;100.00;103005.94;5074133;28;20130;-73
2023/04/03 07:46:48;;;;;;;16.23;4.30;;;;;;;2.41;100.00;103014.97;5074178;28;20031;-69
2023/04/03 07:49:14;;;;;;;16.60;4.50;;;;;;;2.63;100.00;103011.28;5068862;28;20020;-70
2023/04/03 07:51:40;;;;;;;17.77;4.47;;;;;;;2.87;100.00;103012.13;5070472;28;20040;-70
2023/04/03 07:54:06;;;;;;;15.50;4.00;;;;;;;3.17;100.00;103012.44;5075502;28;20044;-70
2023/04/03 07:56:31;;;;;;;16.48;4.43;;;;;;;3.45;100.00;103009.09;5066373;28;20020;-71
2023/04/03 07:58:57;;;;;;;15.90;4.03;;;;;;;3.59;100.00;103004.81;5072363;28;20039;-71
2023/04/03 08:01:22;;;;;;;16.20;4.00;;;;;;;3.73;100.00;103011.88;5075260;28;20032;-70
2023/04/03 08:03:48;;;;;;;14.35;3.80;;;;;;;3.74;100.00;103008.47;5077253;28;20037;-67
2023/04/03 08:06:14;;;;;;;14.55;3.67;;;;;;;3.97;100.00;103012.56;5069272;28;20119;-67
2023/04/03 08:08:41;;;;;;;12.90;3.70;;;;;;;3.80;100.00;103008.88;5069945;28;20036;-67
2023/04/03 08:11:07;;;;;;;15.75;3.80;;;;;;;3.82;100.00;103014.19;5070819;28;20033;-68
2023/04/03 08:13:35;;;;;;;15.95;3.70;;;;;;;4.00;100.00;103012.81;5069055;28;20040;-67
2023/04/03 08:16:22;;;;;;;14.02;3.80;;;;;;;4.15;100.00;103018.13;5074975;28;20029;-72
2023/04/03 08:18:48;;;;;;;14.75;4.00;;;;;;;4.16;100.00;103013.78;5081172;28;20036;-68
2023/04/03 08:21:13;;;;;;;15.70;3.90;;;;;;;4.47;100.00;103011.44;5075540;28;20025;-68
2023/04/03 08:23:43;;;;;;;13.15;3.55;;;;;;;4.79;100.00;103017.81;5068032;28;20043;-68
2023/04/03 08:26:10;;;;;;;15.85;3.95;;;;;;;4.96;100.00;103008.38;5071587;28;20032;-68
2023/04/03 08:28:35;;;;;;;15.75;3.90;;;;;;;4.97;100.00;103009.31;5069135;28;20117;-68
2023/04/03 08:31:12;;;;;;;14.73;3.70;;;;;;;5.00;100.00;103009.47;5068789;28;20056;-68
2023/04/03 08:33:39;;;;;;;13.90;3.70;;;;;;;4.97;100.00;103019.78;5074057;28;20025;-68
2023/04/03 08:36:06;;;;;;;14.75;3.63;;;;;;;4.96;100.00;103018.84;5069227;28;20083;-67
2023/04/03 08:38:32;;;;;;;13.32;3.40;;;;;;;5.24;100.00;103013.59;5075402;28;20436;-67
2023/04/03 08:41:38;;;;;;;12.27;3.10;;;;;;;5.65;100.00;103023.84;5065055;28;20037;-68
2023/04/03 08:44:12;;;;;;;12.73;3.50;;;;;;;5.86;100.00;103029.47;5055733;28;20116;-68
2023/04/03 08:47:16;;;;;;;11.50;3.50;;;;;;;6.46;100.00;103022.41;5068004;28;20037;-69
2023/04/03 08:49:55;;;;;;;;;;;;;;;7.27;100.00;103020.66;5072421;28;20027;-69
2023/04/03 08:52:38;;;;;;;11.30;3.25;;;;;;;7.66;85.14;103039.34;5062727;28;19953;-71
2023/04/03 08:55:25;;;;;;;11.88;3.20;;;;;;;7.96;70.72;103025.00;5070567;28;20372;-69
2023/04/03 08:57:58;;;;;;;12.73;3.33;;;;;;;7.90;66.59;103025.59;5062918;28;20104;-70
2023/04/03 09:00:28;;;;;;;11.05;3.08;;;;;;;8.46;64.08;103025.69;5066189;28;20015;-71
2023/04/03 09:02:55;;;;;;;11.77;3.13;;;;;;;8.78;60.67;103031.59;5075535;28;20027;-72
2023/04/03 09:05:31;;;;;;;11.32;3.15;;;;;;;9.20;59.38;103031.75;5067276;28;20016;-70
2023/04/03 09:08:04;;;;;;;11.73;3.03;;;;;;;9.37;57.88;103022.84;5066774;28;20475;-71
2023/04/03 09:10:32;;;;;;;;;;;;;;;9.88;59.06;103025.00;5071031;28;20104;-73
2023/04/03 09:13:05;;;;;;;9.50;2.60;;;;;;;9.40;51.91;103024.72;5073573;28;19912;-71
2023/04/03 09:15:30;;;;;;;8.98;2.50;;;;;;;9.54;50.50;103018.31;5073347;28;20027;-72
2023/04/03 09:18:04;;;;;;;9.10;2.60;;;;;;;9.66;48.33;103035.53;5074744;28;20036;-73
2023/04/03 09:20:43;;;;;;;10.50;2.60;;;;;;;10.21;49.65;103035.19;5070870;28;20501;-73
2023/04/03 09:23:38;;;;;;;9.38;2.70;;;;;;;10.02;47.78;103033.53;5072006;28;20115;-73
2023/04/03 09:26:16;;;;;;;7.85;2.50;;;;;;;10.14;48.38;103038.41;5069249;28;20032;-72
2023/04/03 09:28:42;;;;;;;8.23;2.60;;;;;;;10.69;45.29;103037.09;5068760;28;20028;-73
2023/04/03 09:31:29;;;;;;;9.43;2.70;;;;;;;11.22;48.53;103034.66;5070059;28;20032;-74
2023/04/03 09:34:02;;;;;;;10.25;2.80;;;;;;;11.06;44.92;103030.53;5061435;28;20074;-74
2023/04/03 09:36:49;;;;;;;9.77;2.40;;;;;;;11.18;46.22;103030.09;5060750;28;20050;-75
2023/04/03 09:39:24;;;;;;;8.07;2.60;;;;;;;11.09;41.89;103024.47;5063309;28;20021;-68
2023/04/03 09:42:01;;;;;;;7.10;2.42;;;;;;;11.19;42.60;103020.44;5063865;28;20079;-69
2023/04/03 09:44:33;;;;;;;6.13;2.38;;;;;;;11.39;39.81;103018.47;5060223;28;20525;-69
2023/04/03 09:46:59;;;;;;;6.05;2.33;;;;;;;11.95;39.86;103016.00;5062507;28;20443;-68
2023/04/03 09:49:24;;;;;;;6.97;2.30;;;;;;;12.35;38.12;103006.72;5066049;28;20024;-69
2023/04/03 09:51:50;;;;;;;5.38;2.08;;;;;;;12.48;34.73;103011.53;5066394;28;20073;-68
2023/04/03 09:54:32;;;;;;;4.90;2.00;;;;;;;12.16;36.06;103014.06;5069305;28;20067;-68
2023/04/03 09:57:06;;;;;;;3.75;1.80;;;;;;;11.99;33.15;103010.84;5073655;28;20028;-68
2023/04/03 09:59:32;;;;;;;5.85;2.00;;;;;;;12.69;35.51;103003.31;5063578;28;20108;-69
2023/04/03 10:02:28;;;;;;;6.60;2.22;;;;;;;12.80;35.13;102990.38;5067686;28;20060;-68
2023/04/03 10:04:53;;;;;;;8.43;2.60;;;;;;;13.29;33.46;102981.97;5055976;28;20044;-69
2023/04/03 10:07:34;;;;;;;5.05;2.10;;;;;;;12.99;34.73;102997.13;5070198;28;20164;-68
2023/04/03 10:10:23;;;;;;;4.22;1.80;;;;;;;13.36;33.85;103007.88;5068553;28;20438;-70
2023/04/03 10:13:11;;;;;;;6.68;2.10;;;;;;;13.26;33.46;103001.38;5070202;28;20021;-71
2023/04/03 10:15:44;;;;;;;5.47;1.92;;;;;;;12.71;31.90;102990.09;5065342;28;20075;-68
2023/04/03 10:18:44;;;;;;;7.20;2.20;;;;;;;13.00;32.89;102992.69;5067925;28;20031;-68
2023/04/03 10:21:20;;;;;;;6.45;2.00;;;;;;;12.71;33.26;102995.38;5063975;28;20093;-68
2023/04/03 10:23:54;;;;;;;5.38;2.08;;;;;;;13.07;33.74;102989.34;5070386;28;20095;-68
2023/04/03 10:26:23;;;;;;;5.35;2.00;;;;;;;12.99;32.29;102990.88;5067460;28;20480;-68
2023/04/03 10:29:01;;;;;;;3.67;1.98;;;;;;;13.28;32.76;102989.06;5067774;28;20109;-68
2023/04/03 10:32:01;;;;;;;3.63;2.00;;;;;;;13.48;31.47;102968.34;5068445;28;20459;-68
2023/04/03 10:34:40;;;;;;;4.97;2.10;;;;;;;13.68;31.88;102974.19;5005770;28;20042;-68
2023/04/03 10:37:23;;;;;;;5.57;2.10;;;;;;;13.47;31.56;102973.63;5061535;28;20044;-67
2023/04/03 10:40:24;;;;;;;6.78;2.00;;;;;;;13.64;29.80;102971.41;5067772;28;20025;-67
2023/04/03 10:43:08;;;;;;;4.53;2.00;;;;;;;14.23;32.33;102963.09;5067579;28;20495;-69
2023/04/03 10:46:08;;;;;;;5.57;1.95;;;;;;;15.61;30.95;102964.97;5068025;28;20476;-67
2023/04/03 10:48:48;;;;;;;5.32;1.90;;;;;;;15.90;30.04;102964.59;5067746;28;20020;-68
2023/04/03 10:51:41;;;;;;;4.18;1.83;;;;;;;16.24;28.57;102951.75;5065774;28;20043;-68
2023/04/03 10:54:06;;;;;;;;;;;;;;;16.39;27.98;102945.72;5071628;28;20029;-68
2023/04/03 10:56:44;;;;;;;4.80;1.90;;;;;;;15.46;28.62;102943.38;5072448;28;19918;-68
2023/04/03 10:59:27;;;;;;;5.50;1.85;;;;;;;15.21;30.49;102950.91;5066022;28;20274;-69
2023/04/03 11:01:57;;;;;;;6.97;1.92;;;;;;;15.39;26.84;102947.72;5071465;28;20111;-69
2023/04/03 11:04:29;;;;;;;3.45;1.90;;;;;;;15.79;28.39;102947.50;5062192;28;20038;-68
2023/04/03 11:07:26;;;;;;;5.55;1.85;;;;;;;16.47;29.62;102948.47;5065857;28;20054;-68
2023/04/03 11:10:09;;;;;;;7.22;1.98;;;;;;;16.79;28.27;102946.22;5069063;28;20089;-68
2023/04/03 11:12:49;;;;;;;3.13;1.90;;;;;;;17.84;28.18;102932.94;5069399;28;20035;-68
2023/04/03 11:15:21;;;;;;;4.07;1.92;;;;;;;16.50;26.18;102937.88;5069708;28;20052;-68
2023/04/03 11:17:54;;;;;;;6.93;2.00;;;;;;;16.67;27.94;102930.97;5070036;28;20106;-67
2023/04/03 11:20:27;;;;;;;3.33;1.80;;;;;;;17.02;25.24;102938.50;5065395;28;20085;-68
2023/04/03 11:22:58;;;;;;;4.45;1.80;;;;;;;17.22;26.15;102935.13;5061498;28;20363;-69